createdAt,value
2019-02-05T00:00:22.689Z,5.90
2019-02-05T00:05:29.803Z,5.48
2019-02-05T00:10:36.923Z,5.85
2019-02-05T00:15:44.054Z,6.60
2019-02-05T00:20:51.186Z,6.49
2019-02-05T00:26:05.859Z,5.77
2019-02-05T00:31:05.451Z,5.61
2019-02-05T00:36:12.573Z,6.53
2019-02-05T00:41:19.763Z,5.93
2019-02-05T00:46:26.893Z,5.68
2019-02-05T00:51:34.416Z,5.45
2019-02-05T00:56:41.543Z,6.05
2019-02-05T01:01:48.666Z,6.71
2019-02-05T01:06:55.816Z,6.27
2019-02-05T01:12:02.956Z,5.99
2019-02-05T01:17:10.100Z,6.25
2019-02-05T01:22:17.550Z,6.62
2019-02-05T01:27:24.677Z,6.38
2019-02-05T01:32:32.535Z,6.26
2019-02-05T01:37:39.793Z,6.69
2019-02-05T01:42:47.578Z,7.22
2019-02-05T01:47:54.723Z,6.25
2019-02-05T01:53:01.846Z,6.90
2019-02-05T01:58:08.978Z,6.82
2019-02-05T02:03:16.471Z,6.77
2019-02-05T02:08:23.618Z,7.04
2019-02-05T02:13:30.771Z,6.63
2019-02-05T02:18:38.165Z,7.76
2019-02-05T02:23:45.309Z,7.05
2019-02-05T02:28:53.086Z,7.08
2019-02-05T02:34:00.211Z,6.80
2019-02-05T02:39:07.369Z,7.36
2019-02-05T02:44:14.476Z,8.11
2019-02-05T02:49:21.630Z,7.76
2019-02-05T02:54:28.970Z,8.03
2019-02-05T02:59:36.106Z,7.87
2019-02-05T03:04:43.258Z,8.24
2019-02-05T03:09:50.395Z,6.79
2019-02-05T03:14:57.523Z,6.74
2019-02-05T03:20:04.664Z,7.27
2019-02-05T03:25:11.783Z,7.42
2019-02-05T03:30:19.104Z,7.28
2019-02-05T03:35:26.240Z,7.47
2019-02-05T03:40:33.368Z,7.37
2019-02-05T03:45:40.494Z,7.69
2019-02-05T03:50:47.643Z,7.88
2019-02-05T03:55:54.791Z,8.26
2019-02-05T04:01:01.905Z,8.25
2019-02-05T04:06:09.043Z,8.48
2019-02-05T04:11:16.157Z,8.16
2019-02-05T04:16:22.808Z,8.15
2019-02-05T04:21:29.940Z,7.76
2019-02-05T04:26:37.078Z,8.68
2019-02-05T04:31:44.212Z,9.47
2019-02-05T04:36:51.322Z,8.11
2019-02-05T04:41:58.538Z,8.46
2019-02-05T04:47:05.669Z,8.84
2019-02-05T04:52:12.799Z,8.47
2019-02-05T04:57:19.948Z,8.88
2019-02-05T05:02:27.080Z,8.30
2019-02-05T05:07:34.378Z,9.40
2019-02-05T05:12:41.503Z,8.50
2019-02-05T05:17:48.673Z,8.19
2019-02-05T05:22:55.789Z,8.45
2019-02-05T05:28:10.149Z,8.88
2019-02-05T05:33:09.545Z,8.56
2019-02-05T05:38:16.675Z,8.68
2019-02-05T05:43:23.813Z,8.40
2019-02-05T05:48:30.475Z,9.06
2019-02-05T05:53:37.586Z,10.39
2019-02-05T05:58:45.024Z,9.26
2019-02-05T06:03:52.185Z,10.65
2019-02-05T06:08:59.313Z,8.99
2019-02-05T06:14:06.492Z,10.17
2019-02-05T06:19:13.583Z,10.13
2019-02-05T06:24:20.693Z,9.64
2019-02-05T06:29:27.848Z,10.05
2019-02-05T06:34:35.303Z,9.98
2019-02-05T06:39:42.447Z,9.53
2019-02-05T06:44:49.575Z,9.26
2019-02-05T06:49:56.727Z,9.60
2019-02-05T06:55:03.830Z,10.60
2019-02-05T07:00:10.939Z,9.51
2019-02-05T07:05:18.063Z,9.72
2019-02-05T07:10:25.176Z,9.16
2019-02-05T07:15:32.303Z,9.98
2019-02-05T07:20:39.552Z,9.80
2019-02-05T07:25:46.655Z,9.85
2019-02-05T07:30:53.859Z,10.44
2019-02-05T07:36:00.888Z,10.63
2019-02-05T07:41:08.497Z,9.51
2019-02-05T07:46:15.731Z,10.11
2019-02-05T07:51:22.853Z,10.77
2019-02-05T07:56:30.004Z,10.22
2019-02-05T08:01:37.119Z,9.96
2019-02-05T08:06:44.248Z,9.65
2019-02-05T08:11:51.367Z,9.51
2019-02-05T08:16:58.500Z,9.98
2019-02-05T08:22:05.647Z,10.14
2019-02-05T08:27:12.777Z,9.78
2019-02-05T08:32:20.107Z,10.61
2019-02-05T08:37:27.334Z,9.66
2019-02-05T08:42:34.478Z,10.99
2019-02-05T08:47:41.578Z,10.06
2019-02-05T08:52:48.713Z,9.73
2019-02-05T08:57:55.833Z,10.35
2019-02-05T09:03:02.970Z,10.57
2019-02-05T09:08:10.133Z,11.30
2019-02-05T09:13:17.261Z,10.92
2019-02-05T09:18:24.398Z,9.90
2019-02-05T09:23:31.531Z,9.52
2019-02-05T09:28:38.657Z,10.19
2019-02-05T09:33:45.762Z,9.38
2019-02-05T09:38:52.872Z,9.56
2019-02-05T09:43:59.989Z,9.57
2019-02-05T09:49:07.095Z,9.65
2019-02-05T09:54:15.041Z,9.59
2019-02-05T09:59:22.194Z,9.64
2019-02-05T10:04:29.319Z,9.42
2019-02-05T10:09:36.467Z,8.95
2019-02-05T10:14:43.608Z,8.90
2019-02-05T10:19:50.744Z,8.65
2019-02-05T10:24:57.845Z,14.48
2019-02-05T10:30:04.945Z,8.74
2019-02-05T10:35:12.073Z,8.81
2019-02-05T10:40:19.210Z,9.74
2019-02-05T10:45:26.330Z,8.57
2019-02-05T10:50:33.442Z,8.19
2019-02-05T10:55:42.545Z,8.75
2019-02-05T11:00:49.705Z,8.79
2019-02-05T11:05:57.000Z,7.95
2019-02-05T11:11:04.181Z,8.28
2019-02-05T11:16:11.308Z,8.13
2019-02-05T11:21:18.453Z,8.48
2019-02-05T11:26:25.564Z,10.39
2019-02-05T11:31:32.867Z,10.11
2019-02-05T11:36:39.987Z,8.77
2019-02-05T11:41:47.120Z,8.90
2019-02-05T11:46:54.246Z,9.36
2019-02-05T11:52:01.382Z,9.73
2019-02-05T11:57:08.532Z,9.06
2019-02-05T12:02:15.633Z,9.67
2019-02-05T12:07:22.728Z,9.43
2019-02-05T12:12:29.845Z,9.45
2019-02-05T12:17:36.963Z,9.64
2019-02-05T12:22:44.146Z,8.32
2019-02-05T12:27:51.257Z,9.28
2019-02-05T12:33:01.528Z,8.90
2019-02-05T12:38:05.073Z,8.11
2019-02-05T12:43:12.245Z,9.23
2019-02-05T12:48:19.378Z,9.27
2019-02-05T12:53:26.493Z,8.63
2019-02-05T12:58:33.710Z,7.82
2019-02-05T13:03:40.761Z,8.63
2019-02-05T13:08:48.324Z,7.97
2019-02-05T13:13:55.475Z,7.87
2019-02-05T13:19:02.627Z,8.10
2019-02-05T13:24:09.756Z,8.20
2019-02-05T13:29:16.958Z,8.78
2019-02-05T13:34:24.106Z,8.78
2019-02-05T13:39:31.579Z,8.04
2019-02-05T13:44:38.726Z,8.31
2019-02-05T13:49:45.852Z,9.05
2019-02-05T13:54:52.985Z,8.29
2019-02-05T14:00:00.218Z,8.82
2019-02-05T14:05:07.296Z,8.32
2019-02-05T14:10:14.422Z,8.73
2019-02-05T14:15:21.657Z,9.60
2019-02-05T14:20:28.822Z,9.34
2019-02-05T14:25:35.972Z,9.12
2019-02-05T14:30:43.090Z,9.09
2019-02-05T14:35:50.230Z,11.29
2019-02-05T14:40:57.363Z,9.69
2019-02-05T14:46:04.479Z,9.20
2019-02-05T14:51:11.601Z,8.99
2019-02-05T14:56:18.725Z,8.61
2019-02-05T15:01:25.885Z,9.25
2019-02-05T15:06:33.073Z,8.21
2019-02-05T15:11:40.235Z,9.13
2019-02-05T15:16:48.670Z,9.55
2019-02-05T15:21:59.527Z,9.42
2019-02-05T15:27:00.117Z,12.20
2019-02-05T15:32:00.142Z,13.81
2019-02-05T15:37:00.129Z,12.08
2019-02-05T15:42:08.574Z,15.21
2019-02-05T15:47:16.236Z,10.19
2019-02-05T15:52:28.917Z,9.65
2019-02-05T15:57:27.288Z,9.48
2019-02-05T16:02:35.994Z,15.39
2019-02-05T16:07:43.251Z,12.13
2019-02-05T16:12:51.858Z,10.21
2019-02-05T16:17:58.992Z,8.89
2019-02-05T16:23:07.944Z,10.03
2019-02-05T16:28:17.187Z,9.92
2019-02-05T16:33:24.748Z,9.60
2019-02-05T16:38:31.923Z,9.10
2019-02-05T16:43:39.081Z,11.32
2019-02-05T16:48:46.533Z,10.79
2019-02-05T16:53:54.504Z,11.78
2019-02-05T16:59:01.749Z,11.61
2019-02-05T17:04:09.228Z,12.48
2019-02-05T17:09:16.386Z,10.87
2019-02-05T17:14:23.507Z,10.32
2019-02-05T17:19:31.895Z,13.02
2019-02-05T17:24:37.375Z,13.51
2019-02-05T17:29:44.586Z,13.02
2019-02-05T17:34:51.752Z,15.27
2019-02-05T17:39:59.272Z,14.27
2019-02-05T17:45:06.411Z,12.24
2019-02-05T17:50:13.563Z,11.32
2019-02-05T17:55:20.990Z,11.64
2019-02-05T18:00:28.176Z,11.97
2019-02-05T18:05:35.487Z,12.15
2019-02-05T18:10:42.514Z,13.03
2019-02-05T18:15:49.702Z,13.25
2019-02-05T18:20:56.873Z,13.69
2019-02-05T18:26:04.040Z,14.28
2019-02-05T18:31:11.183Z,14.53
2019-02-05T18:36:18.344Z,15.05
2019-02-05T18:41:25.465Z,15.63
2019-02-05T18:46:32.583Z,17.47
2019-02-05T18:51:39.868Z,17.19
2019-02-05T18:56:47.065Z,17.63
2019-02-05T19:01:54.260Z,38.34
2019-02-05T19:07:03.751Z,25.01
2019-02-05T19:12:08.267Z,25.04
2019-02-05T19:17:15.014Z,20.95
2019-02-05T19:22:22.158Z,31.10
2019-02-05T19:27:29.330Z,26.82
2019-02-05T19:32:36.503Z,36.50
2019-02-05T19:37:43.644Z,67.33
2019-02-05T19:42:50.844Z,24.74
2019-02-05T19:47:58.374Z,28.15
2019-02-05T19:53:05.480Z,19.99
2019-02-05T19:58:12.657Z,16.47
2019-02-05T20:03:19.848Z,34.61
2019-02-05T20:08:27.736Z,24.61
2019-02-05T20:13:40.488Z,18.40
2019-02-05T20:18:41.638Z,26.71
2019-02-05T20:23:48.825Z,18.94
2019-02-05T20:28:56.028Z,17.30
2019-02-05T20:34:04.902Z,18.72
2019-02-05T20:39:12.031Z,20.21
2019-02-05T20:44:19.448Z,21.08
2019-02-05T20:49:26.599Z,25.56
2019-02-05T20:54:33.777Z,28.83
2019-02-05T20:59:40.931Z,26.68
2019-02-05T21:04:48.828Z,22.97
2019-02-05T21:09:55.573Z,31.47
2019-02-05T21:15:02.703Z,44.98
2019-02-05T21:20:09.831Z,24.20
2019-02-05T21:25:17.146Z,23.91
2019-02-05T21:30:24.327Z,42.75
2019-02-05T21:35:31.683Z,35.05
2019-02-05T21:40:40.193Z,30.48
2019-02-05T21:45:47.357Z,36.17
2019-02-05T21:50:54.457Z,35.69
2019-02-05T21:56:01.859Z,25.11
2019-02-05T22:01:09.024Z,24.96
2019-02-05T22:06:16.235Z,22.26
2019-02-05T22:11:23.374Z,18.24
2019-02-05T22:16:30.599Z,20.44
2019-02-05T22:21:37.732Z,24.41
2019-02-05T22:26:44.844Z,29.74
2019-02-05T22:31:51.983Z,23.68
2019-02-05T22:36:59.150Z,20.02
2019-02-05T22:42:05.806Z,20.01
2019-02-05T22:47:12.956Z,17.43
2019-02-05T22:52:20.197Z,18.34
2019-02-05T22:57:27.338Z,18.69
2019-02-05T23:02:34.458Z,16.02
2019-02-05T23:07:41.589Z,15.62
2019-02-05T23:12:48.736Z,17.75
2019-02-05T23:17:55.863Z,16.57
2019-02-05T23:23:03.003Z,16.23
2019-02-05T23:28:10.127Z,15.52
2019-02-05T23:33:17.246Z,16.49
2019-02-05T23:38:29.600Z,14.15
2019-02-05T23:43:31.032Z,16.64
2019-02-05T23:48:38.137Z,16.60
2019-02-05T23:53:45.283Z,15.86
2019-02-05T23:58:52.433Z,16.09
